Mc Daniels, Kentucky
Current Conditions -  °F | °C
As of 9:58 PM on Sunday 19 Oct 2014 (Local Time) from KFTK Reporting Station
Clear Clear  
Wind Chill: 45°   Ceiling: Unl
Heat Index: 45°   Visibility: 9mi
Dew Point: 43°   Wind: 2mph
Humidity: 93%   Direction: 190°S
Pressure: 30.07"   Gusts: NA
Location:  37.6134°N, 86.4706°W
Report Text: KFTK 200258Z AUTO 19002KT 9SM R18/5500FT CLR 07/06 A3007 RMK AO2 SLP187 T00700060 57013
Loading
Personal Weather Stations






























Interactive Weather Map
Tropical Storm Tracking
New forecast layout! Learn more

10-Day Weather Forecast

Advertisements
Track Severe Weather on mobile